AAL202 KLAX-KSFO
Flight info
| Callsign | AAL202 |
|---|---|
| Flight time | 0h 56m |
| Altitude | 38000 |
| Route | SUMMR2 STOKD SERFR SERFR4 |
| Aircraft | A320/M-SDE3FGHIRWY/LB1 |
Departure
| Time | 2026-05-05 12:07 |
|---|---|
| Airport | Los Angeles International Airport (KLAX) |
Arrival
| Time | 2026-05-05 13:03 |
|---|---|
| Airport | San Francisco International Airport (KSFO) |
| Time | Latitude | Longitude | Altitude | Speed | Heading |
|---|---|---|---|---|---|
| 2026-05-05 11:58 | 33.94743 | -118.40384 | 126 ft | 0 kts | 207° |
| 2026-05-05 12:00 | 33.94755 | -118.40376 | 120 ft | 2 kts | 207° |
| 2026-05-05 12:01 | 33.94770 | -118.40367 | 123 ft | 2 kts | 207° |
| 2026-05-05 12:01 | 33.94785 | -118.40358 | 120 ft | 2 kts | 207° |
| 2026-05-05 12:01 | 33.94794 | -118.40352 | 122 ft | 0 kts | 207° |
| 2026-05-05 12:03 | 33.94780 | -118.40348 | 120 ft | 6 kts | 154° |
| 2026-05-05 12:04 | 33.94778 | -118.40304 | 126 ft | 5 kts | 71° |
| 2026-05-05 12:04 | 33.94798 | -118.40268 | 124 ft | 5 kts | 48° |
| 2026-05-05 12:04 | 33.94819 | -118.40238 | 123 ft | 4 kts | 55° |
| 2026-05-05 12:04 | 33.94834 | -118.40166 | 124 ft | 12 kts | 83° |
| 2026-05-05 12:05 | 33.94875 | -118.40082 | 124 ft | 14 kts | 12° |
| 2026-05-05 12:05 | 33.94926 | -118.40010 | 126 ft | 10 kts | 83° |
| 2026-05-05 12:05 | 33.94948 | -118.39935 | 123 ft | 9 kts | 54° |
| 2026-05-05 12:05 | 33.95003 | -118.39913 | 124 ft | 8 kts | 355° |
| 2026-05-05 12:06 | 33.95039 | -118.39950 | 124 ft | 7 kts | 285° |
| 2026-05-05 12:06 | 33.95034 | -118.40030 | 123 ft | 19 kts | 263° |
| 2026-05-05 12:06 | 33.94980 | -118.40544 | 124 ft | 101 kts | 263° |
| 2026-05-05 12:06 | 33.94868 | -118.41642 | 143 ft | 159 kts | 262° |
| 2026-05-05 12:07 | 33.94730 | -118.42990 | 807 ft | 166 kts | 263° |
| 2026-05-05 12:07 | 33.94583 | -118.44404 | 1598 ft | 174 kts | 262° |
| 2026-05-05 12:07 | 33.94419 | -118.45921 | 2249 ft | 195 kts | 263° |
| 2026-05-05 12:07 | 33.94243 | -118.47628 | 2922 ft | 215 kts | 263° |
| 2026-05-05 12:08 | 33.94057 | -118.49498 | 3644 ft | 234 kts | 263° |
| 2026-05-05 12:08 | 33.93868 | -118.51496 | 4451 ft | 245 kts | 264° |
| 2026-05-05 12:08 | 33.93688 | -118.53555 | 5304 ft | 249 kts | 265° |
| 2026-05-05 12:08 | 33.93559 | -118.55651 | 6112 ft | 256 kts | 266° |
| 2026-05-05 12:09 | 33.93417 | -118.57848 | 6765 ft | 268 kts | 264° |
| 2026-05-05 12:09 | 33.93189 | -118.60059 | 7469 ft | 265 kts | 260° |
| 2026-05-05 12:09 | 33.92834 | -118.62229 | 8176 ft | 265 kts | 258° |
| 2026-05-05 12:09 | 33.92560 | -118.64432 | 8911 ft | 268 kts | 266° |
| 2026-05-05 12:10 | 33.92518 | -118.66685 | 9649 ft | 268 kts | 270° |
| 2026-05-05 12:10 | 33.92545 | -118.68917 | 10288 ft | 272 kts | 271° |
| 2026-05-05 12:10 | 33.92428 | -118.71244 | 10300 ft | 277 kts | 265° |
| 2026-05-05 12:10 | 33.92279 | -118.73619 | 10752 ft | 295 kts | 267° |
| 2026-05-05 12:11 | 33.92143 | -118.76168 | 11282 ft | 313 kts | 266° |
| 2026-05-05 12:11 | 33.91990 | -118.78818 | 11841 ft | 320 kts | 266° |
| 2026-05-05 12:11 | 33.91818 | -118.81496 | 11983 ft | 321 kts | 265° |
| 2026-05-05 12:11 | 33.91720 | -118.84176 | 12024 ft | 322 kts | 272° |
| 2026-05-05 12:12 | 33.91810 | -118.86899 | 12758 ft | 326 kts | 272° |
| 2026-05-05 12:12 | 33.91894 | -118.89633 | 13726 ft | 328 kts | 272° |
| 2026-05-05 12:12 | 33.91971 | -118.92399 | 14522 ft | 332 kts | 271° |
| 2026-05-05 12:12 | 33.92048 | -118.95195 | 15299 ft | 336 kts | 271° |
| 2026-05-05 12:13 | 33.92129 | -118.98018 | 16064 ft | 339 kts | 272° |
| 2026-05-05 12:13 | 33.92456 | -119.00845 | 16808 ft | 344 kts | 283° |
| 2026-05-05 12:13 | 33.93277 | -119.03565 | 17550 ft | 349 kts | 295° |
| 2026-05-05 12:13 | 33.94521 | -119.06099 | 18298 ft | 353 kts | 301° |
| 2026-05-05 12:14 | 33.95833 | -119.08617 | 18948 ft | 357 kts | 301° |
| 2026-05-05 12:14 | 33.97153 | -119.11167 | 19590 ft | 361 kts | 301° |
| 2026-05-05 12:14 | 33.98485 | -119.13747 | 20248 ft | 364 kts | 300° |
| 2026-05-05 12:14 | 33.99838 | -119.16348 | 20892 ft | 368 kts | 303° |
| 2026-05-05 12:15 | 34.01467 | -119.18754 | 21530 ft | 374 kts | 313° |
| 2026-05-05 12:15 | 34.03474 | -119.20779 | 22156 ft | 379 kts | 323° |
| 2026-05-05 12:15 | 34.05640 | -119.22619 | 22798 ft | 383 kts | 323° |
| 2026-05-05 12:15 | 34.07824 | -119.24485 | 23421 ft | 387 kts | 323° |
| 2026-05-05 12:16 | 34.10027 | -119.26377 | 23982 ft | 390 kts | 323° |
| 2026-05-05 12:16 | 34.12241 | -119.28285 | 24541 ft | 392 kts | 323° |
| 2026-05-05 12:16 | 34.14470 | -119.30207 | 25070 ft | 395 kts | 323° |
| 2026-05-05 12:16 | 34.16715 | -119.32142 | 25589 ft | 398 kts | 323° |
| 2026-05-05 12:17 | 34.18977 | -119.34092 | 26091 ft | 401 kts | 323° |
| 2026-05-05 12:17 | 34.21256 | -119.36062 | 26582 ft | 404 kts | 323° |
| 2026-05-05 12:17 | 34.23549 | -119.38046 | 27047 ft | 407 kts | 324° |
| 2026-05-05 12:17 | 34.25076 | -119.39367 | 27352 ft | 409 kts | 324° |
| 2026-05-05 12:18 | 34.27400 | -119.41371 | 27822 ft | 412 kts | 324° |
| 2026-05-05 12:18 | 34.30507 | -119.44053 | 28410 ft | 416 kts | 324° |
| 2026-05-05 12:18 | 34.32865 | -119.46094 | 28852 ft | 419 kts | 324° |
| 2026-05-05 12:18 | 34.35245 | -119.48155 | 29287 ft | 421 kts | 324° |
| 2026-05-05 12:19 | 34.37636 | -119.50227 | 29710 ft | 424 kts | 324° |
| 2026-05-05 12:19 | 34.39262 | -119.51639 | 29999 ft | 426 kts | 324° |
| 2026-05-05 12:19 | 34.41593 | -119.53867 | 30359 ft | 429 kts | 317° |
| 2026-05-05 12:19 | 34.43708 | -119.56422 | 30705 ft | 431 kts | 315° |
| 2026-05-05 12:20 | 34.45821 | -119.59023 | 31027 ft | 433 kts | 315° |
| 2026-05-05 12:20 | 34.47943 | -119.61634 | 31341 ft | 436 kts | 315° |
| 2026-05-05 12:20 | 34.50076 | -119.64259 | 31685 ft | 438 kts | 315° |
| 2026-05-05 12:20 | 34.52212 | -119.66888 | 32115 ft | 437 kts | 314° |
| 2026-05-05 12:21 | 34.54340 | -119.69513 | 32572 ft | 436 kts | 314° |
| 2026-05-05 12:21 | 34.56461 | -119.72134 | 33019 ft | 435 kts | 314° |
| 2026-05-05 12:21 | 34.58551 | -119.74719 | 33461 ft | 435 kts | 314° |
| 2026-05-05 12:21 | 34.60696 | -119.77363 | 33927 ft | 434 kts | 314° |
| 2026-05-05 12:22 | 34.62813 | -119.79972 | 34308 ft | 433 kts | 313° |
| 2026-05-05 12:22 | 34.64926 | -119.82579 | 34663 ft | 433 kts | 313° |
| 2026-05-05 12:22 | 34.67032 | -119.85182 | 35033 ft | 431 kts | 313° |
| 2026-05-05 12:22 | 34.69132 | -119.87782 | 35400 ft | 430 kts | 313° |
| 2026-05-05 12:23 | 34.71226 | -119.90379 | 35734 ft | 430 kts | 313° |
| 2026-05-05 12:23 | 34.73291 | -119.92944 | 35983 ft | 431 kts | 313° |
| 2026-05-05 12:23 | 34.77445 | -119.98103 | 36044 ft | 423 kts | 314° |
| 2026-05-05 12:24 | 34.81543 | -120.03201 | 36047 ft | 421 kts | 314° |
| 2026-05-05 12:24 | 34.85626 | -120.08299 | 36050 ft | 420 kts | 313° |
| 2026-05-05 12:25 | 34.89708 | -120.13397 | 36058 ft | 420 kts | 314° |
| 2026-05-05 12:25 | 34.93784 | -120.18485 | 36064 ft | 419 kts | 314° |
| 2026-05-05 12:26 | 34.97850 | -120.23575 | 36063 ft | 419 kts | 314° |
| 2026-05-05 12:26 | 35.01916 | -120.28671 | 36060 ft | 419 kts | 314° |
| 2026-05-05 12:27 | 35.05975 | -120.33772 | 36057 ft | 419 kts | 314° |
| 2026-05-05 12:27 | 35.10057 | -120.38849 | 36053 ft | 419 kts | 316° |
| 2026-05-05 12:28 | 35.14322 | -120.43677 | 36054 ft | 418 kts | 319° |
| 2026-05-05 12:28 | 35.18665 | -120.48398 | 36047 ft | 418 kts | 319° |
| 2026-05-05 12:29 | 35.22980 | -120.53157 | 36044 ft | 417 kts | 318° |
| 2026-05-05 12:29 | 35.27255 | -120.57968 | 36040 ft | 417 kts | 319° |
| 2026-05-05 12:30 | 35.31514 | -120.62791 | 36038 ft | 417 kts | 319° |
| 2026-05-05 12:30 | 35.35784 | -120.67616 | 36040 ft | 417 kts | 319° |
| 2026-05-05 12:31 | 35.40049 | -120.72431 | 36040 ft | 417 kts | 319° |
| 2026-05-05 12:31 | 35.44322 | -120.77258 | 36041 ft | 417 kts | 319° |
| 2026-05-05 12:32 | 35.48617 | -120.82048 | 36054 ft | 416 kts | 323° |
| 2026-05-05 12:32 | 35.53232 | -120.86331 | 36057 ft | 416 kts | 324° |
| 2026-05-05 12:33 | 35.57846 | -120.90615 | 36054 ft | 416 kts | 325° |
| 2026-05-05 12:33 | 35.62457 | -120.94902 | 36048 ft | 415 kts | 325° |
| 2026-05-05 12:34 | 35.67060 | -120.99189 | 36045 ft | 414 kts | 326° |
| 2026-05-05 12:34 | 35.71651 | -121.03463 | 36062 ft | 414 kts | 326° |
| 2026-05-05 12:35 | 35.76238 | -121.07745 | 36053 ft | 413 kts | 326° |
| 2026-05-05 12:35 | 35.80817 | -121.12019 | 36060 ft | 413 kts | 326° |
| 2026-05-05 12:36 | 35.85390 | -121.16298 | 36058 ft | 413 kts | 326° |
| 2026-05-05 12:36 | 35.89960 | -121.20586 | 36057 ft | 413 kts | 326° |
| 2026-05-05 12:37 | 35.94531 | -121.24885 | 36036 ft | 414 kts | 327° |
| 2026-05-05 12:37 | 35.96851 | -121.27061 | 35807 ft | 421 kts | 327° |
| 2026-05-05 12:37 | 35.99187 | -121.29256 | 35562 ft | 422 kts | 327° |
| 2026-05-05 12:38 | 36.01516 | -121.31446 | 35316 ft | 420 kts | 327° |
| 2026-05-05 12:38 | 36.03831 | -121.33625 | 35038 ft | 416 kts | 328° |
| 2026-05-05 12:38 | 36.06123 | -121.35794 | 34532 ft | 413 kts | 328° |
| 2026-05-05 12:38 | 36.08488 | -121.37755 | 33958 ft | 408 kts | 334° |
| 2026-05-05 12:39 | 36.10881 | -121.39618 | 33399 ft | 404 kts | 335° |
| 2026-05-05 12:39 | 36.13240 | -121.41459 | 32865 ft | 399 kts | 335° |
| 2026-05-05 12:39 | 36.15568 | -121.43279 | 32352 ft | 393 kts | 335° |
| 2026-05-05 12:39 | 36.17872 | -121.45076 | 31841 ft | 390 kts | 335° |
| 2026-05-05 12:40 | 36.20162 | -121.46862 | 31340 ft | 387 kts | 335° |
| 2026-05-05 12:40 | 36.22425 | -121.48631 | 30848 ft | 383 kts | 335° |
| 2026-05-05 12:40 | 36.24666 | -121.50387 | 30372 ft | 379 kts | 336° |
| 2026-05-05 12:40 | 36.26886 | -121.52126 | 29856 ft | 376 kts | 336° |
| 2026-05-05 12:41 | 36.29079 | -121.53845 | 29394 ft | 370 kts | 336° |
| 2026-05-05 12:41 | 36.31238 | -121.55543 | 28946 ft | 365 kts | 335° |
| 2026-05-05 12:41 | 36.33367 | -121.57218 | 28520 ft | 360 kts | 335° |
| 2026-05-05 12:41 | 36.35474 | -121.58872 | 28086 ft | 357 kts | 335° |
| 2026-05-05 12:42 | 36.37560 | -121.60508 | 27653 ft | 353 kts | 335° |
| 2026-05-05 12:42 | 36.39626 | -121.62130 | 27215 ft | 350 kts | 335° |
| 2026-05-05 12:42 | 36.41674 | -121.63738 | 26772 ft | 347 kts | 335° |
| 2026-05-05 12:42 | 36.43708 | -121.65334 | 26321 ft | 344 kts | 335° |
| 2026-05-05 12:43 | 36.45721 | -121.66915 | 25869 ft | 342 kts | 335° |
| 2026-05-05 12:43 | 36.47726 | -121.68492 | 25406 ft | 340 kts | 335° |
| 2026-05-05 12:43 | 36.49715 | -121.70062 | 24948 ft | 338 kts | 335° |
| 2026-05-05 12:43 | 36.51699 | -121.71630 | 24462 ft | 338 kts | 335° |
| 2026-05-05 12:44 | 36.53685 | -121.73200 | 23973 ft | 337 kts | 335° |
| 2026-05-05 12:44 | 36.55665 | -121.74764 | 23467 ft | 337 kts | 334° |
| 2026-05-05 12:44 | 36.57638 | -121.76327 | 22941 ft | 336 kts | 334° |
| 2026-05-05 12:44 | 36.59600 | -121.77881 | 22460 ft | 333 kts | 334° |
| 2026-05-05 12:45 | 36.61546 | -121.79419 | 22011 ft | 331 kts | 334° |
| 2026-05-05 12:45 | 36.63483 | -121.80951 | 21551 ft | 329 kts | 334° |
| 2026-05-05 12:45 | 36.65382 | -121.82456 | 21107 ft | 327 kts | 334° |
| 2026-05-05 12:45 | 36.67322 | -121.83994 | 20655 ft | 325 kts | 334° |
| 2026-05-05 12:46 | 36.69201 | -121.85485 | 20219 ft | 324 kts | 333° |
| 2026-05-05 12:46 | 36.71102 | -121.86991 | 19775 ft | 323 kts | 333° |
| 2026-05-05 12:46 | 36.73004 | -121.88478 | 19349 ft | 321 kts | 336° |
| 2026-05-05 12:46 | 36.75018 | -121.89603 | 18919 ft | 314 kts | 347° |
| 2026-05-05 12:47 | 36.77117 | -121.90263 | 18508 ft | 310 kts | 352° |
| 2026-05-05 12:47 | 36.79215 | -121.90844 | 18086 ft | 308 kts | 352° |
| 2026-05-05 12:47 | 36.81304 | -121.91418 | 17677 ft | 306 kts | 352° |
| 2026-05-05 12:47 | 36.83380 | -121.91994 | 17253 ft | 305 kts | 352° |
| 2026-05-05 12:48 | 36.85442 | -121.92571 | 16849 ft | 303 kts | 351° |
| 2026-05-05 12:48 | 36.87491 | -121.93146 | 16462 ft | 301 kts | 351° |
| 2026-05-05 12:48 | 36.89530 | -121.93715 | 16070 ft | 299 kts | 351° |
| 2026-05-05 12:48 | 36.91560 | -121.94282 | 15690 ft | 298 kts | 351° |
| 2026-05-05 12:49 | 36.93581 | -121.94852 | 15299 ft | 297 kts | 350° |
| 2026-05-05 12:49 | 36.95596 | -121.95435 | 14914 ft | 297 kts | 348° |
| 2026-05-05 12:49 | 36.97593 | -121.96133 | 14498 ft | 298 kts | 346° |
| 2026-05-05 12:49 | 36.99574 | -121.96902 | 14078 ft | 299 kts | 345° |
| 2026-05-05 12:50 | 37.01550 | -121.97699 | 13729 ft | 297 kts | 345° |
| 2026-05-05 12:50 | 37.03513 | -121.98495 | 13326 ft | 295 kts | 345° |
| 2026-05-05 12:50 | 37.05467 | -121.99284 | 12881 ft | 295 kts | 345° |
| 2026-05-05 12:50 | 37.07403 | -122.00058 | 12572 ft | 290 kts | 345° |
| 2026-05-05 12:51 | 37.09303 | -122.00810 | 12009 ft | 283 kts | 345° |
| 2026-05-05 12:51 | 37.11183 | -122.01547 | 11598 ft | 284 kts | 345° |
| 2026-05-05 12:51 | 37.13066 | -122.02282 | 11193 ft | 283 kts | 345° |
| 2026-05-05 12:51 | 37.14942 | -122.03013 | 10797 ft | 282 kts | 345° |
| 2026-05-05 12:52 | 37.16805 | -122.03740 | 10439 ft | 279 kts | 345° |
| 2026-05-05 12:52 | 37.18657 | -122.04462 | 10102 ft | 276 kts | 345° |
| 2026-05-05 12:52 | 37.20455 | -122.05167 | 9875 ft | 264 kts | 345° |
| 2026-05-05 12:52 | 37.22194 | -122.05852 | 9281 ft | 259 kts | 344° |
| 2026-05-05 12:53 | 37.23892 | -122.06521 | 8916 ft | 250 kts | 344° |
| 2026-05-05 12:53 | 37.25517 | -122.07162 | 8544 ft | 245 kts | 344° |
| 2026-05-05 12:53 | 37.27146 | -122.07803 | 8251 ft | 245 kts | 343° |
| 2026-05-05 12:53 | 37.28754 | -122.08434 | 7964 ft | 241 kts | 343° |
| 2026-05-05 12:54 | 37.31960 | -122.09694 | 7219 ft | 240 kts | 342° |
| 2026-05-05 12:54 | 37.33517 | -122.10309 | 6925 ft | 232 kts | 343° |
| 2026-05-05 12:54 | 37.35050 | -122.10911 | 6563 ft | 231 kts | 342° |
| 2026-05-05 12:55 | 37.36583 | -122.11514 | 6213 ft | 230 kts | 342° |
| 2026-05-05 12:55 | 37.38107 | -122.12108 | 6033 ft | 230 kts | 342° |
| 2026-05-05 12:55 | 37.39648 | -122.12656 | 6029 ft | 230 kts | 343° |
| 2026-05-05 12:55 | 37.41193 | -122.13182 | 5762 ft | 231 kts | 344° |
| 2026-05-05 12:56 | 37.42724 | -122.13698 | 5173 ft | 230 kts | 343° |
| 2026-05-05 12:56 | 37.44245 | -122.14210 | 4803 ft | 221 kts | 343° |
| 2026-05-05 12:56 | 37.45693 | -122.14695 | 4522 ft | 210 kts | 343° |
| 2026-05-05 12:56 | 37.47085 | -122.15153 | 4268 ft | 205 kts | 343° |
| 2026-05-05 12:57 | 37.48463 | -122.15603 | 4030 ft | 203 kts | 343° |
| 2026-05-05 12:57 | 37.49842 | -122.16057 | 3802 ft | 200 kts | 342° |
| 2026-05-05 12:57 | 37.51125 | -122.16477 | 3549 ft | 187 kts | 342° |
| 2026-05-05 12:57 | 37.52363 | -122.16892 | 3357 ft | 181 kts | 339° |
| 2026-05-05 12:58 | 37.53437 | -122.17623 | 3256 ft | 173 kts | 319° |
| 2026-05-05 12:58 | 37.54204 | -122.18745 | 3081 ft | 168 kts | 298° |
| 2026-05-05 12:58 | 37.54751 | -122.20036 | 2872 ft | 166 kts | 297° |
| 2026-05-05 12:58 | 37.55293 | -122.21318 | 2653 ft | 166 kts | 296° |
| 2026-05-05 12:59 | 37.55822 | -122.22571 | 2454 ft | 157 kts | 296° |
| 2026-05-05 12:59 | 37.56326 | -122.23765 | 2228 ft | 152 kts | 296° |
| 2026-05-05 12:59 | 37.56817 | -122.24931 | 2021 ft | 150 kts | 296° |
| 2026-05-05 13:00 | 37.57609 | -122.26811 | 1687 ft | 137 kts | 296° |
| 2026-05-05 13:00 | 37.58048 | -122.27854 | 1495 ft | 133 kts | 296° |
| 2026-05-05 13:01 | 37.59346 | -122.30935 | 920 ft | 133 kts | 296° |
| 2026-05-05 13:01 | 37.59778 | -122.31948 | 737 ft | 133 kts | 295° |
| 2026-05-05 13:01 | 37.60200 | -122.32985 | 570 ft | 133 kts | 296° |
| 2026-05-05 13:01 | 37.60644 | -122.34002 | 389 ft | 132 kts | 299° |
| 2026-05-05 13:02 | 37.61069 | -122.35029 | 180 ft | 131 kts | 297° |
| 2026-05-05 13:02 | 37.61488 | -122.36033 | 30 ft | 127 kts | 298° |
| 2026-05-05 13:02 | 37.61844 | -122.36885 | 24 ft | 86 kts | 298° |
| 2026-05-05 13:02 | 37.62058 | -122.37399 | 24 ft | 55 kts | 298° |
| 2026-05-05 13:03 | 37.62149 | -122.37620 | 22 ft | 14 kts | 289° |
| 2026-05-05 13:03 | 37.62115 | -122.37726 | 22 ft | 8 kts | 229° |
| 2026-05-05 13:03 | 37.62103 | -122.37743 | 22 ft | 0 kts | 229° |
| 2026-05-05 13:04 | 37.62102 | -122.37745 | 22 ft | 3 kts | 229° |
| 2026-05-05 13:04 | 37.62049 | -122.37819 | 24 ft | 15 kts | 228° |
| 2026-05-05 13:04 | 37.61981 | -122.37914 | 22 ft | 14 kts | 227° |
| 2026-05-05 13:04 | 37.61915 | -122.38026 | 22 ft | 16 kts | 249° |
| 2026-05-05 13:05 | 37.61937 | -122.38135 | 23 ft | 14 kts | 299° |
| 2026-05-05 13:05 | 37.61937 | -122.38237 | 24 ft | 9 kts | 221° |
| 2026-05-05 13:05 | 37.61926 | -122.38308 | 24 ft | 9 kts | 305° |
| 2026-05-05 13:05 | 37.61946 | -122.38349 | 22 ft | 4 kts | 297° |